sensor_id;sensor_type;location;lat;lon;timestamp;pressure;altitude;pressure_sealevel;temperature;humidity
75549;BME280;64133;56.002;37.208;2023-04-15T00:02:13;100153.85;;;0.11;27.55
75549;BME280;64133;56.002;37.208;2023-04-15T00:07:18;100154.42;;;0.06;27.62
75549;BME280;64133;56.002;37.208;2023-04-15T00:12:23;100167.44;;;0.03;27.67
75549;BME280;64133;56.002;37.208;2023-04-15T00:17:27;100181.03;;;-0.05;27.79
75549;BME280;64133;56.002;37.208;2023-04-15T00:22:32;100180.30;;;-0.10;27.85
75549;BME280;64133;56.002;37.208;2023-04-15T00:27:37;100186.94;;;-0.16;27.97
75549;BME280;64133;56.002;37.208;2023-04-15T00:32:41;100187.97;;;-0.23;28.04
75549;BME280;64133;56.002;37.208;2023-04-15T00:37:46;100195.05;;;-0.30;28.14
75549;BME280;64133;56.002;37.208;2023-04-15T00:42:51;100199.39;;;-0.32;28.19
75549;BME280;64133;56.002;37.208;2023-04-15T00:47:55;100205.17;;;-0.39;28.33
75549;BME280;64133;56.002;37.208;2023-04-15T00:53:00;100211.88;;;-0.49;28.50
75549;BME280;64133;56.002;37.208;2023-04-15T00:58:05;100219.64;;;-0.49;28.43
75549;BME280;64133;56.002;37.208;2023-04-15T01:03:09;100228.80;;;-0.54;28.59
75549;BME280;64133;56.002;37.208;2023-04-15T01:08:14;100222.61;;;-0.66;28.83
75549;BME280;64133;56.002;37.208;2023-04-15T01:13:19;100231.20;;;-0.64;28.83
75549;BME280;64133;56.002;37.208;2023-04-15T01:18:24;100234.01;;;-0.75;29.06
75549;BME280;64133;56.002;37.208;2023-04-15T01:23:29;100237.88;;;-0.73;29.06
75549;BME280;64133;56.002;37.208;2023-04-15T01:28:33;100255.29;;;-0.82;29.16
75549;BME280;64133;56.002;37.208;2023-04-15T01:33:39;100255.83;;;-0.87;29.23
75549;BME280;64133;56.002;37.208;2023-04-15T01:38:43;100253.70;;;-0.89;29.22
75549;BME280;64133;56.002;37.208;2023-04-15T01:43:48;100255.54;;;-0.94;29.32
75549;BME280;64133;56.002;37.208;2023-04-15T01:48:52;100259.42;;;-0.94;29.28
75549;BME280;64133;56.002;37.208;2023-04-15T01:53:57;100259.06;;;-0.98;29.39
75549;BME280;64133;56.002;37.208;2023-04-15T01:59:02;100268.70;;;-1.06;29.53
75549;BME280;64133;56.002;37.208;2023-04-15T02:04:07;100270.84;;;-1.06;29.53
75549;BME280;64133;56.002;37.208;2023-04-15T02:09:12;100279.62;;;-1.13;29.70
75549;BME280;64133;56.002;37.208;2023-04-15T02:14:16;100275.80;;;-1.16;29.82
75549;BME280;64133;56.002;37.208;2023-04-15T02:19:21;100288.02;;;-1.24;29.97
75549;BME280;64133;56.002;37.208;2023-04-15T02:24:26;100300.84;;;-1.19;29.90
75549;BME280;64133;56.002;37.208;2023-04-15T02:29:31;100303.44;;;-1.19;29.99
75549;BME280;64133;56.002;37.208;2023-04-15T02:34:36;100304.73;;;-1.19;29.95
75549;BME280;64133;56.002;37.208;2023-04-15T02:39:41;100308.25;;;-1.23;30.15
75549;BME280;64133;56.002;37.208;2023-04-15T02:44:45;100316.77;;;-1.18;30.06
75549;BME280;64133;56.002;37.208;2023-04-15T02:49:50;100323.62;;;-1.16;30.06
75549;BME280;64133;56.002;37.208;2023-04-15T02:54:54;100333.03;;;-1.13;30.11
75549;BME280;64133;56.002;37.208;2023-04-15T02:59:59;100328.62;;;-1.07;30.00
75549;BME280;64133;56.002;37.208;2023-04-15T03:05:05;100346.59;;;-1.01;29.99
75549;BME280;64133;56.002;37.208;2023-04-15T03:10:10;100339.00;;;-0.87;29.96
75549;BME280;64133;56.002;37.208;2023-04-15T03:15:14;100346.79;;;-0.66;29.67
75549;BME280;64133;56.002;37.208;2023-04-15T03:20:19;100355.30;;;-0.60;29.77
75549;BME280;64133;56.002;37.208;2023-04-15T03:25:24;100353.77;;;-0.49;29.52
75549;BME280;64133;56.002;37.208;2023-04-15T03:30:29;100361.53;;;-0.49;29.56
75549;BME280;64133;56.002;37.208;2023-04-15T03:35:33;100367.00;;;-0.22;29.40
75549;BME280;64133;56.002;37.208;2023-04-15T03:40:39;100369.64;;;-0.24;29.52
75549;BME280;64133;56.002;37.208;2023-04-15T03:45:43;100362.98;;;0.05;29.15
75549;BME280;64133;56.002;37.208;2023-04-15T03:50:48;100364.64;;;0.43;28.79
75549;BME280;64133;56.002;37.208;2023-04-15T03:55:52;100369.34;;;1.13;28.02
75549;BME280;64133;56.002;37.208;2023-04-15T04:00:57;100366.70;;;1.75;27.61
75549;BME280;64133;56.002;37.208;2023-04-15T04:06:01;100373.52;;;2.62;26.67
75549;BME280;64133;56.002;37.208;2023-04-15T04:11:06;100375.47;;;2.01;26.72
75549;BME280;64133;56.002;37.208;2023-04-15T04:16:11;100377.66;;;2.13;26.63
75549;BME280;64133;56.002;37.208;2023-04-15T04:21:15;100388.59;;;2.91;26.12
75549;BME280;64133;56.002;37.208;2023-04-15T04:26:20;100392.44;;;3.17;25.33
75549;BME280;64133;56.002;37.208;2023-04-15T04:31:24;100393.45;;;3.13;25.80
75549;BME280;64133;56.002;37.208;2023-04-15T04:36:29;100394.06;;;2.96;25.31
75549;BME280;64133;56.002;37.208;2023-04-15T04:41:34;100392.77;;;3.57;25.38
75549;BME280;64133;56.002;37.208;2023-04-15T04:46:38;100404.00;;;3.59;24.80
75549;BME280;64133;56.002;37.208;2023-04-15T04:56:56;100395.95;;;3.65;24.27
75549;BME280;64133;56.002;37.208;2023-04-15T05:02:01;100404.69;;;3.64;24.29
75549;BME280;64133;56.002;37.208;2023-04-15T05:07:06;100399.47;;;3.15;24.63
75549;BME280;64133;56.002;37.208;2023-04-15T05:12:11;100393.95;;;5.23;23.22
75549;BME280;64133;56.002;37.208;2023-04-15T05:17:16;100400.31;;;6.60;22.11
75549;BME280;64133;56.002;37.208;2023-04-15T05:22:20;100405.83;;;4.79;22.33
75549;BME280;64133;56.002;37.208;2023-04-15T05:27:25;100408.84;;;6.00;21.66
75549;BME280;64133;56.002;37.208;2023-04-15T05:32:30;100410.70;;;6.25;21.24
75549;BME280;64133;56.002;37.208;2023-04-15T05:37:34;100405.75;;;6.47;21.11
75549;BME280;64133;56.002;37.208;2023-04-15T05:42:39;100411.14;;;8.53;20.13
75549;BME280;64133;56.002;37.208;2023-04-15T05:47:43;100419.59;;;6.85;20.27
75549;BME280;64133;56.002;37.208;2023-04-15T05:52:48;100428.13;;;7.74;20.22
75549;BME280;64133;56.002;37.208;2023-04-15T05:57:53;100429.82;;;10.10;17.87
75549;BME280;64133;56.002;37.208;2023-04-15T06:02:57;100426.67;;;8.65;18.71
75549;BME280;64133;56.002;37.208;2023-04-15T06:08:02;100432.86;;;7.92;19.38
75549;BME280;64133;56.002;37.208;2023-04-15T06:13:07;100435.95;;;10.52;17.70
75549;BME280;64133;56.002;37.208;2023-04-15T06:18:12;100438.88;;;10.54;17.59
75549;BME280;64133;56.002;37.208;2023-04-15T06:23:16;100437.13;;;14.75;15.02
75549;BME280;64133;56.002;37.208;2023-04-15T06:28:21;100447.73;;;11.33;16.39
75549;BME280;64133;56.002;37.208;2023-04-15T06:33:26;100447.00;;;12.07;15.96
75549;BME280;64133;56.002;37.208;2023-04-15T06:38:30;100440.27;;;14.20;14.91
75549;BME280;64133;56.002;37.208;2023-04-15T06:43:37;100452.66;;;14.37;14.30
75549;BME280;64133;56.002;37.208;2023-04-15T06:48:42;100450.39;;;14.15;14.15
75549;BME280;64133;56.002;37.208;2023-04-15T06:53:47;100450.25;;;17.12;12.91
75549;BME280;64133;56.002;37.208;2023-04-15T06:58:51;100450.16;;;18.49;12.08
75549;BME280;64133;56.002;37.208;2023-04-15T07:03:56;100453.40;;;19.42;11.62
75549;BME280;64133;56.002;37.208;2023-04-15T07:09:00;100455.40;;;19.92;11.10
75549;BME280;64133;56.002;37.208;2023-04-15T07:14:05;100458.94;;;21.01;10.30
75549;BME280;64133;56.002;37.208;2023-04-15T07:19:10;100463.67;;;23.51;9.16
75549;BME280;64133;56.002;37.208;2023-04-15T07:24:15;100456.69;;;19.83;9.95
75549;BME280;64133;56.002;37.208;2023-04-15T07:29:19;100450.08;;;21.25;9.70
75549;BME280;64133;56.002;37.208;2023-04-15T07:34:24;100461.17;;;25.00;7.95
75549;BME280;64133;56.002;37.208;2023-04-15T07:39:29;100455.80;;;20.05;9.25
75549;BME280;64133;56.002;37.208;2023-04-15T07:44:33;100450.16;;;17.61;10.15
75549;BME280;64133;56.002;37.208;2023-04-15T07:49:38;100451.52;;;18.07;10.39
75549;BME280;64133;56.002;37.208;2023-04-15T07:54:43;100460.77;;;16.34;10.72
75549;BME280;64133;56.002;37.208;2023-04-15T07:59:47;100461.09;;;18.55;9.87
75549;BME280;64133;56.002;37.208;2023-04-15T08:04:52;100446.98;;;17.28;10.04
75549;BME280;64133;56.002;37.208;2023-04-15T08:09:57;100457.45;;;16.77;10.21
75549;BME280;64133;56.002;37.208;2023-04-15T08:15:01;100456.72;;;14.57;11.13
75549;BME280;64133;56.002;37.208;2023-04-15T08:20:07;100442.64;;;17.93;10.35
75549;BME280;64133;56.002;37.208;2023-04-15T08:25:12;100454.05;;;19.00;9.39
75549;BME280;64133;56.002;37.208;2023-04-15T08:30:17;100450.08;;;21.09;8.52
75549;BME280;64133;56.002;37.208;2023-04-15T08:35:21;100449.84;;;19.59;8.87
75549;BME280;64133;56.002;37.208;2023-04-15T08:40:26;100437.24;;;18.58;8.91
75549;BME280;64133;56.002;37.208;2023-04-15T08:45:31;100433.68;;;18.99;8.63
75549;BME280;64133;56.002;37.208;2023-04-15T08:50:35;100439.96;;;15.21;10.40
75549;BME280;64133;56.002;37.208;2023-04-15T08:55:42;100434.94;;;11.85;12.07
75549;BME280;64133;56.002;37.208;2023-04-15T09:00:48;100433.13;;;10.75;12.79
75549;BME280;64133;56.002;37.208;2023-04-15T09:05:52;100422.95;;;10.00;13.66
75549;BME280;64133;56.002;37.208;2023-04-15T09:10:57;100421.75;;;9.77;13.76
75549;BME280;64133;56.002;37.208;2023-04-15T09:21:17;100410.77;;;9.49;14.24
75549;BME280;64133;56.002;37.208;2023-04-15T09:26:30;100419.18;;;10.04;13.84
75549;BME280;64133;56.002;37.208;2023-04-15T09:31:34;100428.69;;;10.00;13.66
75549;BME280;64133;56.002;37.208;2023-04-15T09:36:53;100417.42;;;9.98;13.83
75549;BME280;64133;56.002;37.208;2023-04-15T09:42:07;100411.67;;;11.26;13.37
75549;BME280;64133;56.002;37.208;2023-04-15T09:47:22;100414.60;;;11.67;12.83
75549;BME280;64133;56.002;37.208;2023-04-15T09:52:25;100417.49;;;10.59;13.29
75549;BME280;64133;56.002;37.208;2023-04-15T09:57:35;100429.17;;;9.64;13.92
75549;BME280;64133;56.002;37.208;2023-04-15T10:02:39;100419.31;;;9.01;14.11
75549;BME280;64133;56.002;37.208;2023-04-15T10:07:44;100431.88;;;9.48;13.76
75549;BME280;64133;56.002;37.208;2023-04-15T10:12:49;100434.53;;;9.98;13.88
75549;BME280;64133;56.002;37.208;2023-04-15T10:17:53;100420.60;;;10.24;13.79
75549;BME280;64133;56.002;37.208;2023-04-15T10:22:58;100415.11;;;10.35;13.40
75549;BME280;64133;56.002;37.208;2023-04-15T10:28:03;100429.89;;;10.30;13.23
75549;BME280;64133;56.002;37.208;2023-04-15T10:33:10;100415.31;;;11.31;13.24
75549;BME280;64133;56.002;37.208;2023-04-15T10:38:37;100407.41;;;11.69;13.04
75549;BME280;64133;56.002;37.208;2023-04-15T10:43:46;100420.86;;;12.28;12.79
75549;BME280;64133;56.002;37.208;2023-04-15T10:48:51;100407.75;;;10.40;13.29
75549;BME280;64133;56.002;37.208;2023-04-15T10:53:58;100407.68;;;11.01;13.21
75549;BME280;64133;56.002;37.208;2023-04-15T10:59:02;100416.45;;;11.47;12.86
75549;BME280;64133;56.002;37.208;2023-04-15T11:04:07;100425.11;;;9.44;13.70
75549;BME280;64133;56.002;37.208;2023-04-15T11:09:15;100404.05;;;9.15;13.96
75549;BME280;64133;56.002;37.208;2023-04-15T11:14:20;100409.56;;;9.18;13.95
75549;BME280;64133;56.002;37.208;2023-04-15T11:19:25;100406.64;;;9.08;14.09
75549;BME280;64133;56.002;37.208;2023-04-15T11:24:29;100394.48;;;9.28;14.24
75549;BME280;64133;56.002;37.208;2023-04-15T11:29:34;100400.50;;;9.52;13.85
75549;BME280;64133;56.002;37.208;2023-04-15T11:34:39;100393.02;;;10.37;13.93
75549;BME280;64133;56.002;37.208;2023-04-15T11:39:43;100404.72;;;9.40;14.16
75549;BME280;64133;56.002;37.208;2023-04-15T11:44:48;100387.75;;;9.67;14.39
75549;BME280;64133;56.002;37.208;2023-04-15T11:49:53;100386.25;;;10.53;14.30
75549;BME280;64133;56.002;37.208;2023-04-15T11:55:03;100378.67;;;10.00;14.15
75549;BME280;64133;56.002;37.208;2023-04-15T12:00:10;100388.30;;;9.37;14.44
75549;BME280;64133;56.002;37.208;2023-04-15T12:05:14;100370.19;;;10.09;14.17
75549;BME280;64133;56.002;37.208;2023-04-15T12:10:19;100376.55;;;9.56;14.48
75549;BME280;64133;56.002;37.208;2023-04-15T12:15:24;100358.78;;;9.53;14.69
75549;BME280;64133;56.002;37.208;2023-04-15T12:20:28;100359.83;;;9.15;14.84
75549;BME280;64133;56.002;37.208;2023-04-15T12:25:36;100357.95;;;9.52;14.72
75549;BME280;64133;56.002;37.208;2023-04-15T12:30:49;100356.63;;;9.52;14.65
75549;BME280;64133;56.002;37.208;2023-04-15T12:35:54;100368.19;;;9.28;14.80
75549;BME280;64133;56.002;37.208;2023-04-15T12:40:59;100366.86;;;9.21;14.84
75549;BME280;64133;56.002;37.208;2023-04-15T12:46:04;100355.50;;;9.21;14.95
75549;BME280;64133;56.002;37.208;2023-04-15T12:51:08;100351.67;;;9.62;14.73
75549;BME280;64133;56.002;37.208;2023-04-15T12:56:13;100361.41;;;9.17;14.75
75549;BME280;64133;56.002;37.208;2023-04-15T13:01:17;100346.59;;;9.23;14.57
75549;BME280;64133;56.002;37.208;2023-04-15T13:06:22;100346.49;;;9.39;14.73
75549;BME280;64133;56.002;37.208;2023-04-15T13:11:27;100346.11;;;9.31;14.81
75549;BME280;64133;56.002;37.208;2023-04-15T13:16:32;100338.63;;;9.53;14.79
75549;BME280;64133;56.002;37.208;2023-04-15T13:21:36;100343.78;;;9.62;14.91
75549;BME280;64133;56.002;37.208;2023-04-15T13:26:41;100343.94;;;9.80;14.86
75549;BME280;64133;56.002;37.208;2023-04-15T13:31:46;100347.72;;;9.34;14.95
75549;BME280;64133;56.002;37.208;2023-04-15T13:36:50;100340.48;;;9.16;15.01
75549;BME280;64133;56.002;37.208;2023-04-15T13:41:55;100355.58;;;8.98;15.33
75549;BME280;64133;56.002;37.208;2023-04-15T13:47:00;100334.95;;;9.20;15.49
75549;BME280;64133;56.002;37.208;2023-04-15T13:52:05;100334.58;;;9.62;15.30
75549;BME280;64133;56.002;37.208;2023-04-15T13:57:09;100333.60;;;8.99;15.53
75549;BME280;64133;56.002;37.208;2023-04-15T14:02:14;100344.90;;;9.15;15.61
75549;BME280;64133;56.002;37.208;2023-04-15T14:07:19;100328.37;;;9.06;15.75
75549;BME280;64133;56.002;37.208;2023-04-15T14:12:23;100317.38;;;9.06;15.82
75549;BME280;64133;56.002;37.208;2023-04-15T14:17:28;100320.57;;;9.26;15.89
75549;BME280;64133;56.002;37.208;2023-04-15T14:22:33;100333.62;;;9.20;16.02
75549;BME280;64133;56.002;37.208;2023-04-15T14:27:37;100334.84;;;9.08;16.18
75549;BME280;64133;56.002;37.208;2023-04-15T14:32:42;100331.80;;;8.92;16.40
75549;BME280;64133;56.002;37.208;2023-04-15T14:37:47;100323.56;;;8.98;16.44
75549;BME280;64133;56.002;37.208;2023-04-15T14:42:51;100330.80;;;9.02;16.60
75549;BME280;64133;56.002;37.208;2023-04-15T14:47:56;100331.72;;;9.01;16.68
75549;BME280;64133;56.002;37.208;2023-04-15T14:53:01;100335.81;;;8.76;16.88
75549;BME280;64133;56.002;37.208;2023-04-15T14:58:06;100321.04;;;8.60;17.01
75549;BME280;64133;56.002;37.208;2023-04-15T15:03:11;100325.15;;;8.56;17.19
75549;BME280;64133;56.002;37.208;2023-04-15T15:08:16;100331.67;;;8.42;17.38
75549;BME280;64133;56.002;37.208;2023-04-15T15:13:20;100324.91;;;8.38;17.45
75549;BME280;64133;56.002;37.208;2023-04-15T15:18:25;100321.20;;;8.34;17.64
75549;BME280;64133;56.002;37.208;2023-04-15T15:23:29;100319.10;;;8.24;17.81
75549;BME280;64133;56.002;37.208;2023-04-15T15:28:35;100313.91;;;8.16;18.05
75549;BME280;64133;56.002;37.208;2023-04-15T15:33:39;100316.62;;;8.14;18.20
75549;BME280;64133;56.002;37.208;2023-04-15T15:38:44;100323.14;;;8.07;18.14
75549;BME280;64133;56.002;37.208;2023-04-15T15:43:48;100324.41;;;8.00;18.22
75549;BME280;64133;56.002;37.208;2023-04-15T15:48:53;100323.72;;;7.96;18.36
75549;BME280;64133;56.002;37.208;2023-04-15T15:53:58;100329.20;;;7.85;18.57
75549;BME280;64133;56.002;37.208;2023-04-15T15:59:03;100324.63;;;7.72;18.71
75549;BME280;64133;56.002;37.208;2023-04-15T16:04:07;100317.58;;;7.57;18.66
75549;BME280;64133;56.002;37.208;2023-04-15T16:09:12;100319.39;;;7.48;18.81
75549;BME280;64133;56.002;37.208;2023-04-15T16:14:17;100323.12;;;7.35;18.95
75549;BME280;64133;56.002;37.208;2023-04-15T16:19:21;100326.70;;;7.25;19.08
75549;BME280;64133;56.002;37.208;2023-04-15T16:24:26;100320.80;;;7.13;19.23
75549;BME280;64133;56.002;37.208;2023-04-15T16:29:31;100331.61;;;7.07;19.33
75549;BME280;64133;56.002;37.208;2023-04-15T16:34:36;100331.48;;;6.93;19.62
75549;BME280;64133;56.002;37.208;2023-04-15T16:39:40;100331.48;;;6.75;19.87
75549;BME280;64133;56.002;37.208;2023-04-15T16:44:45;100323.92;;;6.61;20.10
75549;BME280;64133;56.002;37.208;2023-04-15T16:49:50;100322.00;;;6.47;20.34
75549;BME280;64133;56.002;37.208;2023-04-15T16:54:54;100322.45;;;6.38;20.49
75549;BME280;64133;56.002;37.208;2023-04-15T16:59:59;100320.81;;;6.26;20.70
75549;BME280;64133;56.002;37.208;2023-04-15T17:05:04;100319.72;;;6.13;21.14
75549;BME280;64133;56.002;37.208;2023-04-15T17:10:10;100320.16;;;6.04;21.47
75549;BME280;64133;56.002;37.208;2023-04-15T17:15:15;100319.02;;;6.01;21.61
75549;BME280;64133;56.002;37.208;2023-04-15T17:20:20;100324.41;;;6.07;21.51
75549;BME280;64133;56.002;37.208;2023-04-15T17:25:25;100323.08;;;5.98;21.75
75549;BME280;64133;56.002;37.208;2023-04-15T17:30:29;100335.30;;;5.87;22.00
75549;BME280;64133;56.002;37.208;2023-04-15T17:35:34;100332.49;;;5.73;22.30
75549;BME280;64133;56.002;37.208;2023-04-15T17:40:39;100333.64;;;5.57;22.69
75549;BME280;64133;56.002;37.208;2023-04-15T17:45:43;100339.29;;;5.48;23.03
75549;BME280;64133;56.002;37.208;2023-04-15T17:50:49;100342.73;;;5.29;23.61
75549;BME280;64133;56.002;37.208;2023-04-15T17:55:53;100341.55;;;5.26;23.43
75549;BME280;64133;56.002;37.208;2023-04-15T18:00:58;100350.86;;;5.23;23.79
75549;BME280;64133;56.002;37.208;2023-04-15T18:06:03;100349.49;;;5.15;24.06
75549;BME280;64133;56.002;37.208;2023-04-15T18:11:07;100354.66;;;5.06;24.39
75549;BME280;64133;56.002;37.208;2023-04-15T18:16:12;100355.05;;;5.07;24.45
75549;BME280;64133;56.002;37.208;2023-04-15T18:21:17;100364.84;;;5.02;24.59
75549;BME280;64133;56.002;37.208;2023-04-15T18:26:21;100365.35;;;5.00;24.64
75549;BME280;64133;56.002;37.208;2023-04-15T18:31:26;100374.56;;;4.98;24.83
75549;BME280;64133;56.002;37.208;2023-04-15T18:36:31;100367.01;;;4.92;24.96
75549;BME280;64133;56.002;37.208;2023-04-15T18:41:35;100364.31;;;4.94;25.10
75549;BME280;64133;56.002;37.208;2023-04-15T18:46:40;100359.49;;;4.85;25.20
75549;BME280;64133;56.002;37.208;2023-04-15T18:51:45;100366.67;;;4.79;25.40
75549;BME280;64133;56.002;37.208;2023-04-15T18:56:50;100368.17;;;4.75;25.49
75549;BME280;64133;56.002;37.208;2023-04-15T19:01:55;100368.98;;;4.65;25.68
75549;BME280;64133;56.002;37.208;2023-04-15T19:06:59;100378.46;;;4.68;25.76
75549;BME280;64133;56.002;37.208;2023-04-15T19:12:04;100372.40;;;4.67;25.81
75549;BME280;64133;56.002;37.208;2023-04-15T19:17:09;100376.70;;;4.68;25.76
75549;BME280;64133;56.002;37.208;2023-04-15T19:22:13;100378.45;;;4.58;26.05
75549;BME280;64133;56.002;37.208;2023-04-15T19:27:18;100386.66;;;4.48;26.28
75549;BME280;64133;56.002;37.208;2023-04-15T19:32:23;100387.28;;;4.43;26.40
75549;BME280;64133;56.002;37.208;2023-04-15T19:37:27;100389.11;;;4.41;26.41
75549;BME280;64133;56.002;37.208;2023-04-15T19:42:32;100389.34;;;4.35;26.74
75549;BME280;64133;56.002;37.208;2023-04-15T19:47:37;100389.41;;;4.34;26.81
75549;BME280;64133;56.002;37.208;2023-04-15T19:52:41;100388.58;;;4.43;26.76
75549;BME280;64133;56.002;37.208;2023-04-15T19:57:46;100387.35;;;4.42;26.72
75549;BME280;64133;56.002;37.208;2023-04-15T20:08:05;100387.53;;;4.37;26.94
75549;BME280;64133;56.002;37.208;2023-04-15T20:13:10;100394.62;;;4.34;27.17
75549;BME280;64133;56.002;37.208;2023-04-15T20:18:14;100403.02;;;4.30;27.31
75549;BME280;64133;56.002;37.208;2023-04-15T20:23:19;100400.09;;;4.27;27.37
75549;BME280;64133;56.002;37.208;2023-04-15T20:28:24;100406.45;;;4.20;27.67
75549;BME280;64133;56.002;37.208;2023-04-15T20:33:28;100409.59;;;4.18;27.76
75549;BME280;64133;56.002;37.208;2023-04-15T20:38:33;100413.08;;;4.17;27.58
75549;BME280;64133;56.002;37.208;2023-04-15T20:43:37;100407.20;;;4.12;27.71
75549;BME280;64133;56.002;37.208;2023-04-15T20:48:42;100411.11;;;4.00;28.00
75549;BME280;64133;56.002;37.208;2023-04-15T20:53:47;100411.81;;;3.94;28.00
75549;BME280;64133;56.002;37.208;2023-04-15T20:58:51;100411.99;;;3.89;28.01
75549;BME280;64133;56.002;37.208;2023-04-15T21:03:57;100410.52;;;3.82;28.14
75549;BME280;64133;56.002;37.208;2023-04-15T21:09:01;100413.81;;;3.75;28.10
75549;BME280;64133;56.002;37.208;2023-04-15T21:14:07;100409.79;;;3.67;28.34
75549;BME280;64133;56.002;37.208;2023-04-15T21:19:11;100410.35;;;3.63;28.47
75549;BME280;64133;56.002;37.208;2023-04-15T21:24:16;100419.47;;;3.63;28.44
75549;BME280;64133;56.002;37.208;2023-04-15T21:29:21;100418.55;;;3.64;28.36
75549;BME280;64133;56.002;37.208;2023-04-15T21:34:25;100430.52;;;3.58;28.59
75549;BME280;64133;56.002;37.208;2023-04-15T21:39:30;100431.46;;;3.56;28.52
75549;BME280;64133;56.002;37.208;2023-04-15T21:44:35;100435.53;;;3.51;28.61
75549;BME280;64133;56.002;37.208;2023-04-15T21:49:39;100437.65;;;3.53;28.51
75549;BME280;64133;56.002;37.208;2023-04-15T21:54:44;100439.67;;;3.45;28.76
75549;BME280;64133;56.002;37.208;2023-04-15T21:59:48;100441.98;;;3.41;28.87
75549;BME280;64133;56.002;37.208;2023-04-15T22:04:53;100452.86;;;3.52;28.55
75549;BME280;64133;56.002;37.208;2023-04-15T22:09:58;100454.25;;;3.62;28.41
75549;BME280;64133;56.002;37.208;2023-04-15T22:15:03;100458.20;;;3.49;28.64
75549;BME280;64133;56.002;37.208;2023-04-15T22:20:09;100459.34;;;3.53;28.54
75549;BME280;64133;56.002;37.208;2023-04-15T22:25:14;100461.42;;;3.56;28.52
75549;BME280;64133;56.002;37.208;2023-04-15T22:30:19;100460.02;;;3.59;28.47
75549;BME280;64133;56.002;37.208;2023-04-15T22:35:24;100462.27;;;3.56;28.46
75549;BME280;64133;56.002;37.208;2023-04-15T22:40:28;100462.04;;;3.50;28.56
75549;BME280;64133;56.002;37.208;2023-04-15T22:45:33;100463.77;;;3.38;28.83
75549;BME280;64133;56.002;37.208;2023-04-15T22:50:38;100467.34;;;3.36;28.91
75549;BME280;64133;56.002;37.208;2023-04-15T22:55:55;100463.23;;;3.28;29.03
75549;BME280;64133;56.002;37.208;2023-04-15T23:01:09;100469.61;;;3.20;29.24
75549;BME280;64133;56.002;37.208;2023-04-15T23:06:13;100470.75;;;3.24;29.15
75549;BME280;64133;56.002;37.208;2023-04-15T23:11:18;100480.41;;;3.21;29.23
75549;BME280;64133;56.002;37.208;2023-04-15T23:16:23;100480.23;;;3.14;29.34
75549;BME280;64133;56.002;37.208;2023-04-15T23:21:27;100488.05;;;3.00;29.77
75549;BME280;64133;56.002;37.208;2023-04-15T23:26:35;100487.22;;;2.72;30.34
75549;BME280;64133;56.002;37.208;2023-04-15T23:31:40;100493.64;;;2.75;30.45
75549;BME280;64133;56.002;37.208;2023-04-15T23:36:45;100499.53;;;2.67;30.67
75549;BME280;64133;56.002;37.208;2023-04-15T23:47:01;100512.12;;;2.53;31.02
75549;BME280;64133;56.002;37.208;2023-04-15T23:52:06;100517.73;;;2.67;30.81
75549;BME280;64133;56.002;37.208;2023-04-15T23:57:10;100519.80;;;2.70;30.83
